createdAt,value
2022-10-05T00:01:33.334Z,17.13
2022-10-05T00:04:15.700Z,14.40
2022-10-05T00:06:46.666Z,13.73
2022-10-05T00:09:19.252Z,13.43
2022-10-05T00:11:48.897Z,15.88
2022-10-05T00:14:20.184Z,16.83
2022-10-05T00:16:50.469Z,14.25
2022-10-05T00:19:27.309Z,17.00
2022-10-05T00:21:59.682Z,14.32
2022-10-05T00:24:27.914Z,16.70
2022-10-05T00:26:58.190Z,13.65
2022-10-05T00:29:27.116Z,18.42
2022-10-05T00:31:57.098Z,19.20
2022-10-05T00:34:27.217Z,14.32
2022-10-05T00:36:55.713Z,15.88
2022-10-05T00:39:24.230Z,14.57
2022-10-05T00:42:12.688Z,16.77
2022-10-05T00:44:51.437Z,14.32
2022-10-05T00:47:36.813Z,14.98
2022-10-05T00:50:35.230Z,15.27
2022-10-05T00:53:12.966Z,16.48
2022-10-05T00:55:55.520Z,15.45
2022-10-05T00:58:43.597Z,13.25
2022-10-05T01:01:16.792Z,16.13
2022-10-05T01:04:00.915Z,15.73
2022-10-05T01:06:39.781Z,13.85
2022-10-05T01:09:18.337Z,16.90
2022-10-05T01:11:58.483Z,14.32
2022-10-05T01:14:33.813Z,16.30
2022-10-05T01:17:10.422Z,17.15
2022-10-05T01:20:07.976Z,19.25
2022-10-05T01:22:56.913Z,16.65
2022-10-05T01:25:31.466Z,15.82
2022-10-05T01:28:06.196Z,16.35
2022-10-05T01:30:44.217Z,15.90
2022-10-05T01:33:23.516Z,17.20
2022-10-05T01:36:01.409Z,15.60
2022-10-05T01:38:45.286Z,15.68
2022-10-05T01:41:30.722Z,17.40
2022-10-05T01:44:04.817Z,17.10
2022-10-05T01:46:42.706Z,15.07
2022-10-05T01:49:29.865Z,15.73
2022-10-05T01:52:17.893Z,17.80
2022-10-05T01:55:15.393Z,16.33
2022-10-05T01:57:57.900Z,14.77
2022-10-05T02:00:29.625Z,18.20
2022-10-05T02:03:04.361Z,18.00
2022-10-05T02:05:40.879Z,20.23
2022-10-05T02:08:16.166Z,17.30
2022-10-05T02:10:52.150Z,21.15
2022-10-05T02:13:28.360Z,18.98
2022-10-05T02:16:02.692Z,18.02
2022-10-05T02:18:35.511Z,18.80
2022-10-05T02:21:06.973Z,16.35
2022-10-05T02:23:40.569Z,15.35
2022-10-05T02:26:12.453Z,15.82
2022-10-05T02:28:48.816Z,16.23
2022-10-05T02:31:26.851Z,15.02
2022-10-05T02:34:23.758Z,17.13
2022-10-05T02:37:12.195Z,19.23
2022-10-05T02:39:52.121Z,18.85
2022-10-05T02:42:31.975Z,16.17
2022-10-05T02:45:14.126Z,14.27
2022-10-05T02:47:55.006Z,16.63
2022-10-05T02:50:33.588Z,13.50
2022-10-05T02:53:16.150Z,15.38
2022-10-05T02:55:54.802Z,16.53
2022-10-05T02:58:28.479Z,14.55
2022-10-05T03:01:08.147Z,13.82
2022-10-05T03:03:46.606Z,13.00
2022-10-05T03:06:22.753Z,11.15
2022-10-05T03:09:02.516Z,12.02
2022-10-05T03:11:44.439Z,10.15
2022-10-05T03:14:20.185Z,10.45
2022-10-05T03:17:00.310Z,9.93
2022-10-05T03:20:05.692Z,9.18
2022-10-05T03:22:49.578Z,10.50
2022-10-05T03:25:51.287Z,10.38
2022-10-05T03:28:25.526Z,10.35
2022-10-05T03:31:02.339Z,9.48
2022-10-05T03:33:48.000Z,13.15
2022-10-05T03:36:28.862Z,10.85
2022-10-05T03:39:04.604Z,9.13
2022-10-05T03:41:41.388Z,9.30
2022-10-05T03:44:37.694Z,11.45
2022-10-05T03:47:15.793Z,11.73
2022-10-05T03:50:03.235Z,10.50
2022-10-05T03:52:41.054Z,9.85
2022-10-05T03:55:20.719Z,9.98
2022-10-05T03:57:53.068Z,9.55
2022-10-05T04:00:25.533Z,10.63
2022-10-05T04:03:06.428Z,11.73
2022-10-05T04:05:43.311Z,14.75
2022-10-05T04:08:25.254Z,10.80
2022-10-05T04:10:58.042Z,9.75
2022-10-05T04:13:35.649Z,10.57
2022-10-05T04:16:11.456Z,10.75
2022-10-05T04:18:46.443Z,12.38
2022-10-05T04:21:24.095Z,13.30
2022-10-05T04:24:02.496Z,13.48
2022-10-05T04:26:40.202Z,13.85
2022-10-05T04:29:17.616Z,10.93
2022-10-05T04:32:04.031Z,13.07
2022-10-05T04:34:53.675Z,12.43
2022-10-05T04:37:34.566Z,12.80
2022-10-05T04:40:24.063Z,12.30
2022-10-05T04:43:03.086Z,11.63
2022-10-05T04:45:52.759Z,12.57
2022-10-05T04:48:45.574Z,13.20
2022-10-05T04:51:35.653Z,11.25
2022-10-05T04:54:18.785Z,20.27
2022-10-05T04:56:59.482Z,9.70
2022-10-05T05:00:05.473Z,12.38
2022-10-05T05:02:56.764Z,12.52
2022-10-05T05:05:35.611Z,11.75
2022-10-05T05:08:22.209Z,14.48
2022-10-05T05:11:22.418Z,11.90
2022-10-05T05:14:21.577Z,14.95
2022-10-05T05:16:58.457Z,15.07
2022-10-05T05:19:40.486Z,11.73
2022-10-05T05:22:21.496Z,10.88
2022-10-05T05:25:06.959Z,10.18
2022-10-05T05:27:44.136Z,11.27
2022-10-05T05:30:25.722Z,15.75
2022-10-05T05:33:09.464Z,12.63
2022-10-05T05:36:12.575Z,13.55
2022-10-05T05:38:48.799Z,10.93
2022-10-05T05:41:28.170Z,13.38
2022-10-05T05:44:10.013Z,11.57
2022-10-05T05:47:02.946Z,10.50
2022-10-05T05:49:55.640Z,12.15
2022-10-05T05:52:32.020Z,10.07
2022-10-05T05:55:10.007Z,10.63
2022-10-05T05:57:44.630Z,12.80
2022-10-05T06:00:22.876Z,13.80
2022-10-05T06:03:09.569Z,10.10
2022-10-05T06:05:45.515Z,10.35
2022-10-05T06:08:21.480Z,10.85
2022-10-05T06:11:00.059Z,9.82
2022-10-05T06:13:35.544Z,10.63
2022-10-05T06:16:15.724Z,9.70
2022-10-05T06:18:52.904Z,13.13
2022-10-05T06:21:28.101Z,10.68
2022-10-05T06:24:02.098Z,13.50
2022-10-05T06:27:17.098Z,12.85
2022-10-05T06:30:13.336Z,10.07
2022-10-05T06:33:08.584Z,12.45
2022-10-05T06:35:53.765Z,9.50
2022-10-05T06:39:00.671Z,9.35
2022-10-05T06:41:46.734Z,9.68
2022-10-05T06:44:22.884Z,9.13
2022-10-05T06:47:14.418Z,11.40
2022-10-05T06:50:04.283Z,11.00
2022-10-05T06:52:50.474Z,11.27
2022-10-05T06:55:31.434Z,9.75
2022-10-05T06:58:21.811Z,8.98
2022-10-05T07:00:55.297Z,9.82
2022-10-05T07:03:36.780Z,11.52
2022-10-05T07:06:15.317Z,11.10
2022-10-05T07:09:21.968Z,12.40
2022-10-05T07:12:07.786Z,9.93
2022-10-05T07:15:00.784Z,9.70
2022-10-05T07:17:45.508Z,7.07
2022-10-05T07:20:21.749Z,7.47
2022-10-05T07:23:16.972Z,7.75
2022-10-05T07:25:54.773Z,7.25
2022-10-05T07:28:33.908Z,9.45
2022-10-05T07:31:08.655Z,6.50
2022-10-05T07:33:46.311Z,8.18
2022-10-05T07:36:50.928Z,8.80
2022-10-05T07:39:55.259Z,7.22
2022-10-05T07:42:33.259Z,8.93
2022-10-05T07:45:15.421Z,8.40
2022-10-05T07:47:54.273Z,9.93
2022-10-05T07:50:30.331Z,7.38
2022-10-05T07:53:03.945Z,8.57
2022-10-05T07:55:38.155Z,6.85
2022-10-05T07:58:20.935Z,5.40
2022-10-05T08:01:09.184Z,10.23
2022-10-05T08:03:54.077Z,5.45
2022-10-05T08:06:50.627Z,7.15
2022-10-05T08:09:37.363Z,6.10
2022-10-05T08:12:20.986Z,5.55
2022-10-05T08:14:57.996Z,8.02
2022-10-05T08:17:41.788Z,7.85
2022-10-05T08:20:31.389Z,6.43
2022-10-05T08:23:06.341Z,7.53
2022-10-05T08:25:47.034Z,5.10
2022-10-05T08:28:24.547Z,4.78
2022-10-05T08:31:10.944Z,7.55
2022-10-05T08:33:56.292Z,8.30
2022-10-05T08:36:44.817Z,7.60
2022-10-05T08:39:20.194Z,5.85
2022-10-05T08:42:23.450Z,6.88
2022-10-05T08:45:45.128Z,6.22
2022-10-05T08:49:12.938Z,7.45
2022-10-05T08:52:04.453Z,6.63
2022-10-05T08:55:16.537Z,7.30
2022-10-05T08:58:31.886Z,7.40
2022-10-05T09:01:09.746Z,7.35
2022-10-05T09:04:17.779Z,6.50
2022-10-05T09:07:22.373Z,6.38
2022-10-05T09:10:51.675Z,7.55
2022-10-05T09:14:27.764Z,7.07
2022-10-05T09:17:14.516Z,5.55
2022-10-05T09:20:19.219Z,6.70
2022-10-05T09:23:01.947Z,7.45
2022-10-05T09:28:41.907Z,4.55
2022-10-05T09:31:40.886Z,4.55
2022-10-05T09:34:53.834Z,6.95
2022-10-05T09:41:10.837Z,7.28
2022-10-05T09:44:32.952Z,4.00
2022-10-05T09:47:53.997Z,4.13
2022-10-05T09:51:07.354Z,5.30
2022-10-05T09:57:32.795Z,4.75
2022-10-05T10:00:16.841Z,4.63
2022-10-05T10:03:48.279Z,5.05
2022-10-05T10:06:56.304Z,7.00
2022-10-05T10:09:38.726Z,4.68
2022-10-05T10:12:31.359Z,3.55
2022-10-05T10:15:42.013Z,4.78
2022-10-05T10:19:20.681Z,4.93
2022-10-05T10:22:32.111Z,6.82
2022-10-05T10:25:28.728Z,4.07
2022-10-05T10:28:35.773Z,4.97
2022-10-05T10:31:25.128Z,7.38
2022-10-05T10:34:16.321Z,5.57
2022-10-05T10:37:07.597Z,4.43
2022-10-05T10:40:00.577Z,3.08
2022-10-05T10:42:43.404Z,4.88
2022-10-05T10:45:46.865Z,6.25
2022-10-05T10:48:55.928Z,5.18
2022-10-05T10:52:06.846Z,5.47
2022-10-05T10:55:06.763Z,4.40
2022-10-05T10:57:53.709Z,5.05
2022-10-05T11:00:49.894Z,2.67
2022-10-05T11:04:11.273Z,4.32
2022-10-05T11:07:05.676Z,4.55
2022-10-05T11:10:05.519Z,3.75
2022-10-05T11:13:21.823Z,6.88
2022-10-05T11:16:28.949Z,5.25
2022-10-05T11:19:40.208Z,3.58
2022-10-05T11:22:40.972Z,3.80
2022-10-05T11:25:50.359Z,3.92
2022-10-05T11:28:41.553Z,7.50
2022-10-05T11:31:44.882Z,2.58
2022-10-05T11:34:53.055Z,5.95
2022-10-05T11:38:02.336Z,3.35
2022-10-05T11:41:08.250Z,5.10
2022-10-05T11:44:38.893Z,4.47
2022-10-05T11:47:18.210Z,2.53
2022-10-05T11:49:56.755Z,3.22
2022-10-05T11:52:32.154Z,3.60
2022-10-05T11:55:27.850Z,6.47
2022-10-05T11:58:00.741Z,3.20
2022-10-05T12:00:37.863Z,3.03
2022-10-05T12:03:47.571Z,4.57
2022-10-05T12:06:49.375Z,5.70
2022-10-05T12:09:34.317Z,2.42
2022-10-05T12:12:14.972Z,4.60
2022-10-05T12:14:53.870Z,3.55
2022-10-05T12:17:31.310Z,4.55
2022-10-05T12:20:07.299Z,4.22
2022-10-05T12:22:42.906Z,3.92
2022-10-05T12:25:26.571Z,3.67
2022-10-05T12:28:00.139Z,4.13
2022-10-05T12:30:52.253Z,5.68
2022-10-05T12:33:26.100Z,4.15
2022-10-05T12:36:03.655Z,3.35
2022-10-05T12:38:39.683Z,6.85
2022-10-05T12:41:20.121Z,5.50
2022-10-05T12:44:03.595Z,3.63
2022-10-05T12:46:42.617Z,3.00
2022-10-05T12:49:51.500Z,2.83
2022-10-05T12:52:39.078Z,2.92
2022-10-05T12:55:16.401Z,3.15
2022-10-05T12:57:54.636Z,2.97
2022-10-05T13:00:23.707Z,2.85
2022-10-05T13:03:00.753Z,4.45
2022-10-05T13:05:38.790Z,3.47
2022-10-05T13:08:22.370Z,4.50
2022-10-05T13:11:01.765Z,2.60
2022-10-05T13:13:48.381Z,3.92
2022-10-05T13:16:30.664Z,3.67
2022-10-05T13:19:17.013Z,4.03
2022-10-05T13:22:22.773Z,3.85
2022-10-05T13:25:19.753Z,4.47
2022-10-05T13:27:57.373Z,4.10
2022-10-05T13:30:26.157Z,6.50
2022-10-05T13:33:01.101Z,9.77
2022-10-05T13:35:45.978Z,3.72
2022-10-05T13:38:30.727Z,5.10
2022-10-05T13:41:13.029Z,3.10
2022-10-05T13:43:49.845Z,2.75
2022-10-05T13:46:29.472Z,4.47
2022-10-05T13:49:12.980Z,6.55
2022-10-05T13:51:49.580Z,5.75
2022-10-05T13:54:27.249Z,4.72
2022-10-05T13:57:11.056Z,4.93
2022-10-05T13:59:47.905Z,5.82
2022-10-05T14:02:23.069Z,5.97
2022-10-05T14:05:05.282Z,4.28
2022-10-05T14:07:38.413Z,5.53
2022-10-05T14:10:14.989Z,9.60
2022-10-05T14:12:46.764Z,7.03
2022-10-05T14:15:23.074Z,6.35
2022-10-05T14:17:52.719Z,3.92
2022-10-05T14:20:25.813Z,5.82
2022-10-05T14:22:59.500Z,26.85
2022-10-05T14:25:30.218Z,4.65
2022-10-05T14:28:24.202Z,8.35
2022-10-05T14:30:59.537Z,5.88
2022-10-05T14:33:30.996Z,4.75
2022-10-05T14:36:00.665Z,4.27
2022-10-05T14:38:31.470Z,6.30
2022-10-05T14:41:18.881Z,4.25
2022-10-05T14:43:55.785Z,4.90
2022-10-05T14:46:32.760Z,3.88
2022-10-05T14:49:21.788Z,7.30
2022-10-05T14:51:51.381Z,7.65
2022-10-05T14:54:36.972Z,9.43
2022-10-05T14:57:16.687Z,14.18
2022-10-05T15:00:12.301Z,10.88
2022-10-05T15:03:17.579Z,8.18
2022-10-05T15:05:51.471Z,6.00
2022-10-05T15:08:48.184Z,6.57
2022-10-05T15:11:32.744Z,8.73
2022-10-05T15:14:03.920Z,7.97
2022-10-05T15:16:39.216Z,7.82
2022-10-05T15:19:20.980Z,8.50
2022-10-05T15:22:15.647Z,6.03
2022-10-05T15:24:56.083Z,3.72
2022-10-05T15:27:34.648Z,4.80
2022-10-05T15:30:14.209Z,4.82
2022-10-05T15:33:04.625Z,6.43
2022-10-05T15:35:54.744Z,5.88
2022-10-05T15:38:27.023Z,5.47
2022-10-05T15:43:46.906Z,5.80
2022-10-05T15:46:23.475Z,6.78
2022-10-05T15:49:11.216Z,6.00
2022-10-05T15:51:54.340Z,6.95
2022-10-05T15:54:44.734Z,8.25
2022-10-05T15:57:24.983Z,6.20
2022-10-05T16:00:04.069Z,5.10
2022-10-05T16:02:42.915Z,6.90
2022-10-05T16:05:45.826Z,5.20
2022-10-05T16:08:55.552Z,8.30
2022-10-05T16:11:48.525Z,8.20
2022-10-05T16:14:40.698Z,6.15
2022-10-05T16:17:25.395Z,8.18
2022-10-05T16:20:14.603Z,4.18
2022-10-05T16:22:59.708Z,6.70
2022-10-05T16:25:43.979Z,7.13
2022-10-05T16:28:25.031Z,6.28
2022-10-05T16:31:02.691Z,9.82
2022-10-05T16:33:52.891Z,7.65
2022-10-05T16:36:36.425Z,7.10
2022-10-05T16:39:17.901Z,6.53
2022-10-05T16:42:00.863Z,6.72
2022-10-05T16:44:39.659Z,5.95
2022-10-05T16:47:34.244Z,5.50
2022-10-05T16:50:14.777Z,10.32
2022-10-05T16:52:51.718Z,8.18
2022-10-05T16:55:31.864Z,6.20
2022-10-05T16:58:02.971Z,6.38
2022-10-05T17:00:47.014Z,7.03
2022-10-05T17:03:27.095Z,6.32
2022-10-05T17:06:39.927Z,7.35
2022-10-05T17:09:25.227Z,8.52
2022-10-05T17:12:14.137Z,11.45
2022-10-05T17:15:00.758Z,6.82
2022-10-05T17:17:50.345Z,7.40
2022-10-05T17:20:42.982Z,7.35
2022-10-05T17:23:32.264Z,7.38
2022-10-05T17:26:17.634Z,7.43
2022-10-05T17:29:09.130Z,7.75
2022-10-05T17:32:11.916Z,6.32
2022-10-05T17:35:01.510Z,6.65
2022-10-05T17:37:38.390Z,8.18
2022-10-05T17:40:35.554Z,8.38
2022-10-05T17:43:25.299Z,8.88
2022-10-05T17:46:09.830Z,7.68
2022-10-05T17:48:45.323Z,10.50
2022-10-05T17:52:40.532Z,8.35
2022-10-05T17:56:02.857Z,8.20
2022-10-05T17:59:07.301Z,7.68
2022-10-05T18:01:39.384Z,7.30
2022-10-05T18:04:38.486Z,9.50
2022-10-05T18:07:25.480Z,6.53
2022-10-05T18:10:24.606Z,6.43
2022-10-05T18:13:35.049Z,8.57
2022-10-05T18:16:03.749Z,9.50
2022-10-05T18:18:59.564Z,6.32
2022-10-05T18:21:38.783Z,9.20
2022-10-05T18:24:53.297Z,7.35
2022-10-05T18:28:09.942Z,7.25
2022-10-05T18:30:57.837Z,8.98
2022-10-05T18:34:03.065Z,10.65
2022-10-05T18:37:00.422Z,6.32
2022-10-05T18:40:03.960Z,6.78
2022-10-05T18:42:40.382Z,10.32
2022-10-05T18:45:23.780Z,5.72
2022-10-05T18:48:09.588Z,9.00
2022-10-05T18:50:48.409Z,7.38
2022-10-05T18:53:29.930Z,4.85
2022-10-05T18:56:11.288Z,6.55
2022-10-05T18:58:53.219Z,4.40
2022-10-05T19:01:57.140Z,7.82
2022-10-05T19:04:38.408Z,9.82
2022-10-05T19:07:20.404Z,4.78
2022-10-05T19:10:11.898Z,8.50
2022-10-05T19:13:02.941Z,6.80
2022-10-05T19:15:45.538Z,7.35
2022-10-05T19:18:35.054Z,7.63
2022-10-05T19:21:18.688Z,7.15
2022-10-05T19:24:07.234Z,8.55
2022-10-05T19:26:57.437Z,7.20
2022-10-05T19:29:45.838Z,6.07
2022-10-05T19:32:25.580Z,7.40
2022-10-05T19:35:10.884Z,7.70
2022-10-05T19:37:50.239Z,7.00
2022-10-05T19:40:29.158Z,6.60
2022-10-05T19:43:30.691Z,4.70
2022-10-05T19:46:19.049Z,5.75
2022-10-05T19:48:51.792Z,5.57
2022-10-05T19:51:30.663Z,5.35
2022-10-05T19:54:07.549Z,7.55
2022-10-05T19:56:47.641Z,6.32
2022-10-05T19:59:21.922Z,7.15
2022-10-05T20:01:55.791Z,5.90
2022-10-05T20:04:37.208Z,7.60
2022-10-05T20:07:06.530Z,7.70
2022-10-05T20:09:52.403Z,7.50
2022-10-05T20:12:23.008Z,5.88
2022-10-05T20:15:26.673Z,6.13
2022-10-05T20:18:15.090Z,4.97
2022-10-05T20:20:47.098Z,8.27
2022-10-05T20:23:26.089Z,4.95
2022-10-05T20:26:12.329Z,10.15
2022-10-05T20:28:41.142Z,7.75
2022-10-05T20:31:09.689Z,7.22
2022-10-05T20:33:40.189Z,8.60
2022-10-05T20:36:09.051Z,7.28
2022-10-05T20:38:40.896Z,9.35
2022-10-05T20:41:10.306Z,9.35
2022-10-05T20:43:39.302Z,8.82
2022-10-05T20:46:08.889Z,6.25
2022-10-05T20:48:39.698Z,9.05
2022-10-05T20:51:08.650Z,8.50
2022-10-05T20:53:37.219Z,10.25
2022-10-05T20:56:06.349Z,8.75
2022-10-05T20:58:34.940Z,7.95
2022-10-05T21:01:19.938Z,8.07
2022-10-05T21:03:50.607Z,8.07
2022-10-05T21:06:21.446Z,9.93
2022-10-05T21:08:51.414Z,5.85
2022-10-05T21:11:20.348Z,10.23
2022-10-05T21:13:49.522Z,7.55
2022-10-05T21:16:20.293Z,10.05
2022-10-05T21:18:50.946Z,5.95
2022-10-05T21:21:20.546Z,9.13
2022-10-05T21:23:51.185Z,12.43
2022-10-05T21:26:19.434Z,12.85
2022-10-05T21:28:48.116Z,9.32
2022-10-05T21:31:16.720Z,10.90
2022-10-05T21:33:45.087Z,10.45
2022-10-05T21:36:15.560Z,13.18
2022-10-05T21:38:44.231Z,7.78
2022-10-05T21:41:12.752Z,9.57
2022-10-05T21:43:41.154Z,10.43
2022-10-05T21:46:11.516Z,9.32
2022-10-05T21:48:41.596Z,6.55
2022-10-05T21:51:13.581Z,4.22
2022-10-05T21:53:47.319Z,9.13
2022-10-05T21:56:19.325Z,5.75
2022-10-05T21:58:48.751Z,5.63
2022-10-05T22:01:22.388Z,7.18
2022-10-05T22:03:51.681Z,9.05
2022-10-05T22:06:20.198Z,3.47
2022-10-05T22:08:50.002Z,6.32
2022-10-05T22:11:19.319Z,8.85
2022-10-05T22:13:50.568Z,4.45
2022-10-05T22:16:22.497Z,6.45
2022-10-05T22:18:53.768Z,5.78
2022-10-05T22:21:22.795Z,5.80
2022-10-05T22:23:52.643Z,3.55
2022-10-05T22:26:23.757Z,4.53
2022-10-05T22:28:55.274Z,8.10
2022-10-05T22:31:23.947Z,6.25
2022-10-05T22:33:53.006Z,5.68
2022-10-05T22:36:22.105Z,4.88
2022-10-05T22:38:50.400Z,5.60
2022-10-05T22:41:21.224Z,7.53
2022-10-05T22:43:50.936Z,8.48
2022-10-05T22:46:20.251Z,4.22
2022-10-05T22:48:48.940Z,5.10
2022-10-05T22:51:17.552Z,4.32
2022-10-05T22:53:46.125Z,5.82
2022-10-05T22:56:15.978Z,5.57
2022-10-05T22:58:46.777Z,7.80
2022-10-05T23:01:17.950Z,5.28
2022-10-05T23:03:46.884Z,6.85
2022-10-05T23:06:19.580Z,4.65
2022-10-05T23:08:49.175Z,6.90
2022-10-05T23:11:21.584Z,7.55
2022-10-05T23:13:52.239Z,11.23
2022-10-05T23:16:24.495Z,5.15
2022-10-05T23:18:54.673Z,8.00
2022-10-05T23:21:26.638Z,9.43
2022-10-05T23:23:55.655Z,8.65
2022-10-05T23:26:26.812Z,4.07
2022-10-05T23:28:56.701Z,5.80
2022-10-05T23:31:27.455Z,7.95
2022-10-05T23:33:56.234Z,7.57
2022-10-05T23:36:27.891Z,9.00
2022-10-05T23:38:56.489Z,7.35
2022-10-05T23:41:25.445Z,7.22
2022-10-05T23:43:55.929Z,9.25
2022-10-05T23:46:26.293Z,6.80
2022-10-05T23:48:54.980Z,6.45
2022-10-05T23:51:23.689Z,5.97
2022-10-05T23:53:52.450Z,6.55
2022-10-05T23:56:21.001Z,6.30
2022-10-05T23:58:49.834Z,5.72
